Time;durP1;ratioP1;P1;durP2;ratioP2;P2;SDS_P1;SDS_P2;PMS_P1;PMS_P2;Temp;Humidity;BMP_temperature;BMP_pressure;BME280_temperature;BME280_humidity;BME280_pressure;Samples;Min_cycle;Max_cycle;Signal;HPM_P1;HPM_P2
2022/10/10 00:03:15;;;;;;;;;;;;;;;;;;8412567;28;27934;-74
2022/10/10 00:07:15;;;;;;;;;;;;;;;;;;8405473;27;27318;-76
2022/10/10 00:11:15;;;;;;;;;;;;;;;;;;8408700;27;28886;-75
2022/10/10 00:15:18;;;;;;;;;;;;;;;;;;8407359;27;28606;-75
2022/10/10 00:19:18;;;;;;;;;;;;;;;;;;8411427;27;28249;-75
2022/10/10 00:23:18;;;;;;;;;;;;;;;;;;8408551;27;27293;-75
2022/10/10 00:27:18;;;;;;;;;;;;;;;;;;8408356;27;28012;-75
2022/10/10 00:31:18;;;;;;;;;;;;;;;;;;8405995;27;28230;-76
2022/10/10 00:35:19;;;;;;;;;;;;;;;;;;8407316;28;27645;-76
2022/10/10 00:39:19;;;;;;;;;;;;;;;;;;8407270;28;28275;-76
2022/10/10 00:43:19;;;;;;;;;;;;;;;;;;8409786;28;27252;-76
2022/10/10 00:47:19;;;;;;;;;;;;;;;;;;8409918;27;28212;-76
2022/10/10 00:51:19;;;;;;;;;;;;;;;;;;8426163;27;28464;-75
2022/10/10 00:55:19;;;;;;;;;;;;;;;;;;8412462;28;28307;-76
2022/10/10 00:59:19;;;;;;;;;;;;;;;;;;8409905;28;27291;-76
2022/10/10 01:03:19;;;;;;;;;;;;;;;;;;8414438;28;28520;-75
2022/10/10 01:07:20;;;;;;;;;;;;;;;;;;8429561;27;29072;-76
2022/10/10 01:11:20;;;;;;;;;;;;;;;;;;8413142;28;28243;-76
2022/10/10 01:15:20;;;;;;;;;;;;;;;;;;8429777;27;28584;-77
2022/10/10 01:19:20;;;;;;;;;;;;;;;;;;8415837;28;28263;-76
2022/10/10 01:23:20;;;;;;;;;;;;;;;;;;8415457;28;28578;-76
2022/10/10 01:27:21;;;;;;;;;;;;;;;;;;8416684;28;27529;-75
2022/10/10 01:31:21;;;;;;;;;;;;;;;;;;8415205;28;27240;-75
2022/10/10 01:35:21;;;;;;;;;;;;;;;;;;8417750;28;27250;-76
2022/10/10 01:39:21;;;;;;;;;;;;;;;;;;8410520;28;28297;-77
2022/10/10 01:43:21;;;;;;;;;;;;;;;;;;8416379;28;28359;-77
2022/10/10 01:47:22;;;;;;;;;;;;;;;;;;8413792;28;28686;-76
2022/10/10 01:51:22;;;;;;;;;;;;;;;;;;8418560;28;27529;-77
2022/10/10 01:55:22;;;;;;;;;;;;;;;;;;8415007;28;27335;-75
2022/10/10 01:59:22;;;;;;;;;;;;;;;;;;8415252;28;28172;-76
2022/10/10 02:03:22;;;;;;;;;;;;;;;;;;8414642;28;28313;-76
2022/10/10 02:07:22;;;;;;;;;;;;;;;;;;8415736;27;27560;-76
2022/10/10 02:11:22;;;;;;;;;;;;;;;;;;8402720;28;29548;-76
2022/10/10 02:15:23;;;;;;;;;;;;;;;;;;8418039;27;27385;-75
2022/10/10 02:19:23;;;;;;;;;;;;;;;;;;8426072;27;28268;-75
2022/10/10 02:23:23;;;;;;;;;;;;;;;;;;8415865;28;27674;-76
2022/10/10 02:27:23;;;;;;;;;;;;;;;;;;8415243;27;27458;-76
2022/10/10 02:31:23;;;;;;;;;;;;;;;;;;8419174;28;27567;-76
2022/10/10 02:35:23;;;;;;;;;;;;;;;;;;8431491;27;28399;-76
2022/10/10 02:39:23;;;;;;;;;;;;;;;;;;8411805;28;28506;-76
2022/10/10 02:43:24;;;;;;;;;;;;;;;;;;8411727;28;29552;-76
2022/10/10 02:47:24;;;;;;;;;;;;;;;;;;8413769;28;28135;-76
2022/10/10 02:51:24;;;;;;;;;;;;;;;;;;8416211;28;28706;-75
2022/10/10 02:55:24;;;;;;;;;;;;;;;;;;8400399;28;28282;-76
2022/10/10 02:59:24;;;;;;;;;;;;;;;;;;8414263;28;27505;-76
2022/10/10 03:03:24;;;;;;;;;;;;;;;;;;8410646;27;28476;-75
2022/10/10 03:07:24;;;;;;;;;;;;;;;;;;8409093;27;28714;-77
2022/10/10 03:11:25;;;;;;;;;;;;;;;;;;8413759;27;27426;-74
2022/10/10 03:15:25;;;;;;;;;;;;;;;;;;8410200;27;27417;-76
2022/10/10 03:19:25;;;;;;;;;;;;;;;;;;8422413;27;29097;-76
2022/10/10 03:23:25;;;;;;;;;;;;;;;;;;8410946;28;28075;-75
2022/10/10 03:27:25;;;;;;;;;;;;;;;;;;8411966;28;27183;-77
2022/10/10 03:31:25;;;;;;;;;;;;;;;;;;8424472;27;28656;-74
2022/10/10 03:35:25;;;;;;;;;;;;;;;;;;8408864;28;28469;-77
2022/10/10 03:39:26;;;;;;;;;;;;;;;;;;8412654;28;27239;-74
2022/10/10 03:43:26;;;;;;;;;;;;;;;;;;8415404;28;27664;-76
2022/10/10 03:47:26;;;;;;;;;;;;;;;;;;8456062;27;28170;-74
2022/10/10 03:51:26;;;;;;;;;;;;;;;;;;8438955;27;27478;-74
2022/10/10 03:55:26;;;;;;;;;;;;;;;;;;8440628;28;27411;-76
2022/10/10 03:59:26;;;;;;;;;;;;;;;;;;8441710;28;27309;-76
2022/10/10 04:03:26;;;;;;;;;;;;;;;;;;8440849;28;28483;-76
2022/10/10 04:07:27;;;;;;;;;;;;;;;;;;8447391;28;27146;-77
2022/10/10 04:11:27;;;;;;;;;;;;;;;;;;8441804;27;28184;-75
2022/10/10 04:15:27;;;;;;;;;;;;;;;;;;8426991;27;28271;-76
2022/10/10 04:19:27;;;;;;;;;;;;;;;;;;8413663;28;28336;-76
2022/10/10 04:23:27;;;;;;;;;;;;;;;;;;8409743;28;27345;-76
2022/10/10 04:27:28;;;;;;;;;;;;;;;;;;8412037;28;28706;-77
2022/10/10 04:31:28;;;;;;;;;;;;;;;;;;8407962;28;28544;-76
2022/10/10 04:35:28;;;;;;;;;;;;;;;;;;8410604;27;27430;-76
2022/10/10 04:39:28;;;;;;;;;;;;;;;;;;8405005;27;28421;-77
2022/10/10 04:43:28;;;;;;;;;;;;;;;;;;8408593;28;28014;-75
2022/10/10 04:47:29;;;;;;;;;;;;;;;;;;8403919;27;28220;-76
2022/10/10 04:51:29;;;;;;;;;;;;;;;;;;8410476;27;29214;-76
2022/10/10 04:55:29;;;;;;;;;;;;;;;;;;8409684;27;27783;-75
2022/10/10 04:59:29;;;;;;;;;;;;;;;;;;8414198;27;27767;-77
2022/10/10 05:03:29;;;;;;;;;;;;;;;;;;8407577;27;28148;-75
2022/10/10 05:07:29;;;;;;;;;;;;;;;;;;8412768;28;27683;-76
2022/10/10 05:11:30;;;;;;;;;;;;;;;;;;8409002;27;27954;-75
2022/10/10 05:15:30;;;;;;;;;;;;;;;;;;8406656;27;28769;-76
2022/10/10 05:19:30;;;;;;;;;;;;;;;;;;8404901;27;28210;-77
2022/10/10 05:23:30;;;;;;;;;;;;;;;;;;8408017;27;28094;-75
2022/10/10 05:27:31;;;;;;;;;;;;;;;;;;8414471;27;27741;-77
2022/10/10 05:31:31;;;;;;;;;;;;;;;;;;8411920;28;28323;-75
2022/10/10 05:35:31;;;;;;;;;;;;;;;;;;8416408;28;27408;-76
2022/10/10 05:39:31;;;;;;;;;;;;;;;;;;8411729;28;28297;-77
2022/10/10 05:43:31;;;;;;;;;;;;;;;;;;8414808;28;27356;-75
2022/10/10 05:47:31;;;;;;;;;;;;;;;;;;8413117;28;27207;-74
2022/10/10 05:51:31;;;;;;;;;;;;;;;;;;8416098;28;28304;-75
2022/10/10 05:55:32;;;;;;;;;;;;;;;;;;8415292;27;29391;-75
2022/10/10 05:59:32;;;;;;;;;;;;;;;;;;8415912;28;29703;-75
2022/10/10 06:03:32;;;;;;;;;;;;;;;;;;8415933;27;27987;-76
2022/10/10 06:07:32;;;;;;;;;;;;;;;;;;8413999;27;28160;-74
2022/10/10 06:11:32;;;;;;;;;;;;;;;;;;8409965;28;29829;-77
2022/10/10 06:15:32;;;;;;;;;;;;;;;;;;8416248;27;27997;-75
2022/10/10 06:19:32;;;;;;;;;;;;;;;;;;8415483;28;28594;-76
2022/10/10 06:23:33;;;;;;;;;;;;;;;;;;8415670;28;28209;-76
2022/10/10 06:27:33;;;;;;;;;;;;;;;;;;8417824;28;27515;-76
2022/10/10 06:31:38;;;;;;;;;;;;;;;;;;8412924;27;28102;-77
2022/10/10 06:35:38;;;;;;;;;;;;;;;;;;8411641;28;28265;-75
2022/10/10 06:39:38;;;;;;;;;;;;;;;;;;8411974;28;28278;-77
2022/10/10 06:43:40;;;;;;;;;;;;;;;;;;8414317;27;28679;-76
2022/10/10 06:47:40;;;;;;;;;;;;;;;;;;8415197;28;29666;-77
2022/10/10 06:51:41;;;;;;;;;;;;;;;;;;8413753;28;28285;-77
2022/10/10 06:55:41;;;;;;;;;;;;;;;;;;8409123;28;28299;-77
2022/10/10 06:59:41;;;;;;;;;;;;;;;;;;8419532;28;27864;-76
2022/10/10 07:03:41;;;;;;;;;;;;;;;;;;8411419;28;29192;-77
2022/10/10 07:07:41;;;;;;;;;;;;;;;;;;8415578;28;27206;-75
2022/10/10 07:11:44;;;;;;;;;;;;;;;;;;8404332;28;28174;-76
2022/10/10 07:15:44;;;;;;;;;;;;;;;;;;8408424;28;29521;-76
2022/10/10 07:19:44;;;;;;;;;;;;;;;;;;8408653;28;29382;-76
2022/10/10 07:23:44;;;;;;;;;;;;;;;;;;8407248;28;28557;-75
2022/10/10 07:27:44;;;;;;;;;;;;;;;;;;8411393;27;27444;-76
2022/10/10 07:31:45;;;;;;;;;;;;;;;;;;8412424;28;28562;-77
2022/10/10 07:35:45;;;;;;;;;;;;;;;;;;8401490;28;29236;-77
2022/10/10 07:39:45;;;;;;;;;;;;;;;;;;8407801;28;29328;-76
2022/10/10 07:43:45;;;;;;;;;;;;;;;;;;8400000;28;29084;-77
2022/10/10 07:47:45;;;;;;;;;;;;;;;;;;8412233;28;27236;-76
2022/10/10 07:51:45;;;;;;;;;;;;;;;;;;8416573;27;28303;-77
2022/10/10 07:55:45;;;;;;;;;;;;;;;;;;8414149;28;27432;-77
2022/10/10 07:59:46;;;;;;;;;;;;;;;;;;8413975;28;27964;-77
2022/10/10 08:03:46;;;;;;;;;;;;;;;;;;8412785;28;28298;-77
2022/10/10 08:07:46;;;;;;;;;;;;;;;;;;8412765;28;28484;-76
2022/10/10 08:11:46;;;;;;;;;;;;;;;;;;8413412;27;27174;-76
2022/10/10 08:15:46;;;;;;;;;;;;;;;;;;8408993;27;30078;-75
2022/10/10 08:19:46;;;;;;;;;;;;;;;;;;8402536;27;29575;-76
2022/10/10 08:23:46;;;;;;;;;;;;;;;;;;8403822;28;27627;-77
2022/10/10 08:27:46;;;;;;;;;;;;;;;;;;8409252;28;27276;-76
2022/10/10 08:31:47;;;;;;;;;;;;;;;;;;8417217;27;28041;-76
2022/10/10 08:35:47;;;;;;;;;;;;;;;;;;8407332;27;28498;-76
2022/10/10 08:39:47;;;;;;;;;;;;;;;;;;8408077;28;27236;-76
2022/10/10 08:43:47;;;;;;;;;;;;;;;;;;8407876;28;27253;-77
2022/10/10 08:47:47;;;;;;;;;;;;;;;;;;8422263;27;29168;-76
2022/10/10 08:51:47;;;;;;;;;;;;;;;;;;8400066;28;28568;-76
2022/10/10 08:55:48;;;;;;;;;;;;;;;;;;8411025;28;27373;-75
2022/10/10 08:59:48;;;;;;;;;;;;;;;;;;8412706;28;27228;-77
2022/10/10 09:03:48;;;;;;;;;;;;;;;;;;8408966;27;28168;-78
2022/10/10 09:07:48;;;;;;;;;;;;;;;;;;8418616;28;28144;-77
2022/10/10 09:11:48;;;;;;;;;;;;;;;;;;8414066;27;28411;-76
2022/10/10 09:15:48;;;;;;;;;;;;;;;;;;8431548;27;27230;-77
2022/10/10 09:19:49;;;;;;;;;;;;;;;;;;8438207;27;27521;-76
2022/10/10 09:23:49;;;;;;;;;;;;;;;;;;8448001;28;27085;-77
2022/10/10 09:27:49;;;;;;;;;;;;;;;;;;8456999;28;27203;-78
2022/10/10 09:31:50;;;;;;;;;;;;;;;;;;8453401;27;27456;-78
2022/10/10 09:35:50;;;;;;;;;;;;;;;;;;8453099;27;28304;-77
2022/10/10 09:39:50;;;;;;;;;;;;;;;;;;8455507;28;27116;-76
2022/10/10 09:43:50;;;;;;;;;;;;;;;;;;8435906;27;28418;-76
2022/10/10 09:47:50;;;;;;;;;;;;;;;;;;8435270;27;28736;-76
2022/10/10 09:51:51;;;;;;;;;;;;;;;;;;8420881;27;28119;-77
2022/10/10 09:55:52;;;;;;;;;;;;;;;;;;8416285;28;28051;-77
2022/10/10 09:59:53;;;;;;;;;;;;;;;;;;8418283;27;28607;-76
2022/10/10 10:03:53;;;;;;;;;;;;;;;;;;8415256;28;28271;-77
2022/10/10 10:07:53;;;;;;;;;;;;;;;;;;8420848;27;27365;-74
2022/10/10 10:11:53;;;;;;;;;;;;;;;;;;8415883;27;27481;-77
2022/10/10 10:15:53;;;;;;;;;;;;;;;;;;8414438;27;27472;-75
2022/10/10 10:19:53;;;;;;;;;;;;;;;;;;8416814;28;27201;-76
2022/10/10 10:23:54;;;;;;;;;;;;;;;;;;8415764;27;28130;-75
2022/10/10 10:27:54;;;;;;;;;;;;;;;;;;8414837;28;27641;-77
2022/10/10 10:31:54;;;;;;;;;;;;;;;;;;8404053;28;28409;-77
2022/10/10 10:35:54;;;;;;;;;;;;;;;;;;8418624;27;27682;-76
2022/10/10 10:39:54;;;;;;;;;;;;;;;;;;8406522;28;29486;-76
2022/10/10 10:43:54;;;;;;;;;;;;;;;;;;8421769;28;27503;-75
2022/10/10 10:47:54;;;;;;;;;;;;;;;;;;8405173;28;28086;-77
2022/10/10 10:51:55;;;;;;;;;;;;;;;;;;8417380;28;27934;-76
2022/10/10 10:55:55;;;;;;;;;;;;;;;;;;8412060;28;30726;-76
2022/10/10 10:59:55;;;;;;;;;;;;;;;;;;8414443;28;28677;-76
2022/10/10 11:03:55;;;;;;;;;;;;;;;;;;8419414;28;27065;-74
2022/10/10 11:07:56;;;;;;;;;;;;;;;;;;8408813;28;28517;-75
2022/10/10 11:11:56;;;;;;;;;;;;;;;;;;8413230;27;27229;-77
2022/10/10 11:15:56;;;;;;;;;;;;;;;;;;8409852;27;28426;-75
2022/10/10 11:19:56;;;;;;;;;;;;;;;;;;8408617;28;28311;-77
2022/10/10 11:23:56;;;;;;;;;;;;;;;;;;8416740;28;27484;-77
2022/10/10 11:27:56;;;;;;;;;;;;;;;;;;8409629;28;28181;-77
2022/10/10 11:31:56;;;;;;;;;;;;;;;;;;8424775;27;28515;-76
2022/10/10 11:35:57;;;;;;;;;;;;;;;;;;8414515;28;28657;-77
2022/10/10 11:39:57;;;;;;;;;;;;;;;;;;8415556;28;27501;-77
2022/10/10 11:43:57;;;;;;;;;;;;;;;;;;8411947;28;27547;-78
2022/10/10 11:47:57;;;;;;;;;;;;;;;;;;8416266;28;27375;-77
2022/10/10 11:51:57;;;;;;;;;;;;;;;;;;8404152;28;28275;-76
2022/10/10 11:55:57;;;;;;;;;;;;;;;;;;8399689;28;29680;-75
2022/10/10 11:59:59;;;;;;;;;;;;;;;;;;8399297;27;28490;-75
2022/10/10 12:03:59;;;;;;;;;;;;;;;;;;8408860;27;27494;-77
2022/10/10 12:07:59;;;;;;;;;;;;;;;;;;8400553;28;28849;-76
2022/10/10 12:11:59;;;;;;;;;;;;;;;;;;8400756;28;29366;-77
2022/10/10 12:15:59;;;;;;;;;;;;;;;;;;8397884;28;28634;-77
2022/10/10 12:19:59;;;;;;;;;;;;;;;;;;8402521;28;28697;-77
2022/10/10 12:23:59;;;;;;;;;;;;;;;;;;8400189;28;28551;-77
2022/10/10 12:28:00;;;;;;;;;;;;;;;;;;8399514;28;28592;-76
2022/10/10 12:32:00;;;;;;;;;;;;;;;;;;8406762;28;28209;-77
2022/10/10 12:36:05;;;;;;;;;;;;;;;;;;8396794;27;28450;-79
2022/10/10 12:40:05;;;;;;;;;;;;;;;;;;8414943;27;27176;-76
2022/10/10 12:44:05;;;;;;;;;;;;;;;;;;8413214;28;28209;-76
2022/10/10 12:48:05;;;;;;;;;;;;;;;;;;8419310;27;28484;-77
2022/10/10 12:52:06;;;;;;;;;;;;;;;;;;8414879;28;27895;-77
2022/10/10 12:56:06;;;;;;;;;;;;;;;;;;8415038;28;27785;-77
2022/10/10 13:00:06;;;;;;;;;;;;;;;;;;8415875;28;27130;-77
2022/10/10 13:04:06;;;;;;;;;;;;;;;;;;8417533;28;27221;-76
2022/10/10 13:08:06;;;;;;;;;;;;;;;;;;8419325;28;27577;-76
2022/10/10 13:12:06;;;;;;;;;;;;;;;;;;8414760;28;27513;-77
2022/10/10 13:16:07;;;;;;;;;;;;;;;;;;8418317;28;27351;-76
2022/10/10 13:20:08;;;;;;;;;;;;;;;;;;8417426;27;27311;-77
2022/10/10 13:24:08;;;;;;;;;;;;;;;;;;8423696;28;27823;-77
2022/10/10 13:28:09;;;;;;;;;;;;;;;;;;8414078;28;27703;-77
2022/10/10 13:32:09;;;;;;;;;;;;;;;;;;8417221;28;29537;-76
2022/10/10 13:36:09;;;;;;;;;;;;;;;;;;8415981;28;27366;-77
2022/10/10 13:40:09;;;;;;;;;;;;;;;;;;8413205;28;28795;-77
2022/10/10 13:44:09;;;;;;;;;;;;;;;;;;8417643;28;27208;-76
2022/10/10 13:48:09;;;;;;;;;;;;;;;;;;8413081;27;27357;-76
2022/10/10 13:52:10;;;;;;;;;;;;;;;;;;8418088;28;27589;-75
2022/10/10 13:56:10;;;;;;;;;;;;;;;;;;8411949;28;28307;-75
2022/10/10 14:00:10;;;;;;;;;;;;;;;;;;8431097;27;28237;-77
2022/10/10 14:04:10;;;;;;;;;;;;;;;;;;8420389;28;27879;-76
2022/10/10 14:08:10;;;;;;;;;;;;;;;;;;8410070;28;29117;-77
2022/10/10 14:12:10;;;;;;;;;;;;;;;;;;8419164;28;27480;-77
2022/10/10 14:16:11;;;;;;;;;;;;;;;;;;8418640;27;27903;-76
2022/10/10 14:20:11;;;;;;;;;;;;;;;;;;8413576;28;27800;-77
2022/10/10 14:24:11;;;;;;;;;;;;;;;;;;8412391;28;28411;-78
2022/10/10 14:28:12;;;;;;;;;;;;;;;;;;8414107;27;28274;-76
2022/10/10 14:32:12;;;;;;;;;;;;;;;;;;8413324;28;28342;-77
2022/10/10 14:36:12;;;;;;;;;;;;;;;;;;8429861;27;28394;-76
2022/10/10 14:40:12;;;;;;;;;;;;;;;;;;8416413;28;27479;-78
2022/10/10 14:44:12;;;;;;;;;;;;;;;;;;8442442;27;28190;-77
2022/10/10 14:48:12;;;;;;;;;;;;;;;;;;8443698;28;28538;-78
2022/10/10 14:52:12;;;;;;;;;;;;;;;;;;8433648;28;28155;-77
2022/10/10 14:56:13;;;;;;;;;;;;;;;;;;8441871;27;28148;-78
2022/10/10 15:00:13;;;;;;;;;;;;;;;;;;8442208;28;27358;-78
2022/10/10 15:04:13;;;;;;;;;;;;;;;;;;8423055;28;28249;-76
2022/10/10 15:08:13;;;;;;;;;;;;;;;;;;8436285;28;27471;-77
2022/10/10 15:12:13;;;;;;;;;;;;;;;;;;8444088;28;27480;-78
2022/10/10 15:16:13;;;;;;;;;;;;;;;;;;8422177;27;27661;-76
2022/10/10 15:20:14;;;;;;;;;;;;;;;;;;8399894;27;28505;-76
2022/10/10 15:24:14;;;;;;;;;;;;;;;;;;8416108;27;28826;-76
2022/10/10 15:28:14;;;;;;;;;;;;;;;;;;8412208;27;28023;-77
2022/10/10 15:32:14;;;;;;;;;;;;;;;;;;8408692;27;29208;-76
2022/10/10 15:36:14;;;;;;;;;;;;;;;;;;8411962;27;29098;-76
2022/10/10 15:40:14;;;;;;;;;;;;;;;;;;8410955;28;28478;-77
2022/10/10 15:44:14;;;;;;;;;;;;;;;;;;8413904;28;28849;-77
2022/10/10 15:48:15;;;;;;;;;;;;;;;;;;8413818;27;28260;-77
2022/10/10 15:52:15;;;;;;;;;;;;;;;;;;8411406;28;27740;-76
2022/10/10 15:56:15;;;;;;;;;;;;;;;;;;8416369;27;28091;-76
2022/10/10 16:00:15;;;;;;;;;;;;;;;;;;8414519;28;27139;-76
2022/10/10 16:04:15;;;;;;;;;;;;;;;;;;8411322;28;27590;-76
2022/10/10 16:08:17;;;;;;;;;;;;;;;;;;8417393;27;28411;-75
2022/10/10 16:12:17;;;;;;;;;;;;;;;;;;8405369;27;27387;-76
2022/10/10 16:16:18;;;;;;;;;;;;;;;;;;8402728;28;27344;-75
2022/10/10 16:20:18;;;;;;;;;;;;;;;;;;8402956;28;27454;-77
2022/10/10 16:24:18;;;;;;;;;;;;;;;;;;8410130;27;27450;-77
2022/10/10 16:28:18;;;;;;;;;;;;;;;;;;8408691;28;27447;-77
2022/10/10 16:32:18;;;;;;;;;;;;;;;;;;8412020;27;27427;-77
2022/10/10 16:36:18;;;;;;;;;;;;;;;;;;8411094;27;28034;-77
2022/10/10 16:40:18;;;;;;;;;;;;;;;;;;8406982;28;28371;-77
2022/10/10 16:44:19;;;;;;;;;;;;;;;;;;8408513;27;27493;-76
2022/10/10 16:48:19;;;;;;;;;;;;;;;;;;8405970;27;28497;-77
2022/10/10 16:52:19;;;;;;;;;;;;;;;;;;8404503;27;27584;-76
2022/10/10 16:56:19;;;;;;;;;;;;;;;;;;8407086;27;27873;-75
2022/10/10 17:00:19;;;;;;;;;;;;;;;;;;8406050;27;27148;-77
2022/10/10 17:04:19;;;;;;;;;;;;;;;;;;8404804;27;27198;-75
2022/10/10 17:08:19;;;;;;;;;;;;;;;;;;8407479;28;27974;-77
2022/10/10 17:12:19;;;;;;;;;;;;;;;;;;8404776;28;28155;-76
2022/10/10 17:16:20;;;;;;;;;;;;;;;;;;8396524;28;28347;-76
2022/10/10 17:20:20;;;;;;;;;;;;;;;;;;8405447;28;28189;-75
2022/10/10 17:24:20;;;;;;;;;;;;;;;;;;8410828;28;28617;-77
2022/10/10 17:28:20;;;;;;;;;;;;;;;;;;8413519;27;28273;-76
2022/10/10 17:32:20;;;;;;;;;;;;;;;;;;8403179;28;28553;-76
2022/10/10 17:36:20;;;;;;;;;;;;;;;;;;8410255;27;28598;-76
2022/10/10 17:40:22;;;;;;;;;;;;;;;;;;8419303;28;27422;-76
2022/10/10 17:44:22;;;;;;;;;;;;;;;;;;8415961;28;27823;-76
2022/10/10 17:48:23;;;;;;;;;;;;;;;;;;8413118;28;28224;-77
2022/10/10 17:52:24;;;;;;;;;;;;;;;;;;8424169;28;27302;-77
2022/10/10 17:56:24;;;;;;;;;;;;;;;;;;8418265;28;28790;-76
2022/10/10 18:00:24;;;;;;;;;;;;;;;;;;8416603;27;27585;-76
2022/10/10 18:04:24;;;;;;;;;;;;;;;;;;8419315;28;27133;-77
2022/10/10 18:08:25;;;;;;;;;;;;;;;;;;8412829;28;27151;-77
2022/10/10 18:12:25;;;;;;;;;;;;;;;;;;8404136;27;28884;-77
2022/10/10 18:16:25;;;;;;;;;;;;;;;;;;8417088;27;27459;-76
2022/10/10 18:20:25;;;;;;;;;;;;;;;;;;8412945;28;28239;-75
2022/10/10 18:24:25;;;;;;;;;;;;;;;;;;8411917;27;27270;-76
2022/10/10 18:28:26;;;;;;;;;;;;;;;;;;8412349;28;46344;-76
2022/10/10 18:32:26;;;;;;;;;;;;;;;;;;8410818;28;28047;-77
2022/10/10 18:36:26;;;;;;;;;;;;;;;;;;8411656;28;27318;-76
2022/10/10 18:40:26;;;;;;;;;;;;;;;;;;8421679;28;28012;-76
2022/10/10 18:44:26;;;;;;;;;;;;;;;;;;8418461;28;28696;-77
2022/10/10 18:48:26;;;;;;;;;;;;;;;;;;8416300;27;27707;-77
2022/10/10 18:52:27;;;;;;;;;;;;;;;;;;8413191;27;27498;-77
2022/10/10 18:56:27;;;;;;;;;;;;;;;;;;8427579;27;27183;-76
2022/10/10 19:00:28;;;;;;;;;;;;;;;;;;8412618;28;27397;-76
2022/10/10 19:04:28;;;;;;;;;;;;;;;;;;8415081;27;27715;-75
2022/10/10 19:08:30;;;;;;;;;;;;;;;;;;8428988;27;28746;-75
2022/10/10 19:12:32;;;;;;;;;;;;;;;;;;8415411;27;46685;-75
2022/10/10 19:16:32;;;;;;;;;;;;;;;;;;8411276;28;27064;-76
2022/10/10 19:20:32;;;;;;;;;;;;;;;;;;8416595;28;27563;-77
2022/10/10 19:24:33;;;;;;;;;;;;;;;;;;8412624;27;28075;-77
2022/10/10 19:28:33;;;;;;;;;;;;;;;;;;8410799;27;28621;-75
2022/10/10 19:32:33;;;;;;;;;;;;;;;;;;8407249;27;28321;-75
2022/10/10 19:36:33;;;;;;;;;;;;;;;;;;8411467;28;28658;-78
2022/10/10 19:40:33;;;;;;;;;;;;;;;;;;8416340;28;28384;-76
2022/10/10 19:44:33;;;;;;;;;;;;;;;;;;8413553;27;27899;-75
2022/10/10 19:48:35;;;;;;;;;;;;;;;;;;8398113;28;27592;-76
2022/10/10 19:52:35;;;;;;;;;;;;;;;;;;8409572;27;28228;-76
2022/10/10 19:56:36;;;;;;;;;;;;;;;;;;8427212;27;28179;-75
2022/10/10 20:00:36;;;;;;;;;;;;;;;;;;8413321;28;28267;-75
2022/10/10 20:04:36;;;;;;;;;;;;;;;;;;8414821;27;27426;-76
2022/10/10 20:08:36;;;;;;;;;;;;;;;;;;8414208;28;27545;-77
2022/10/10 20:12:36;;;;;;;;;;;;;;;;;;8406530;27;28510;-76
2022/10/10 20:16:36;;;;;;;;;;;;;;;;;;8429164;27;28397;-76
2022/10/10 20:20:36;;;;;;;;;;;;;;;;;;8433906;28;28307;-75
2022/10/10 20:24:37;;;;;;;;;;;;;;;;;;8436207;27;27548;-76
2022/10/10 20:28:37;;;;;;;;;;;;;;;;;;8435281;28;28705;-75
2022/10/10 20:32:37;;;;;;;;;;;;;;;;;;8439943;28;26998;-75
2022/10/10 20:36:38;;;;;;;;;;;;;;;;;;8444264;27;27241;-77
2022/10/10 20:40:38;;;;;;;;;;;;;;;;;;8441664;27;28562;-77
2022/10/10 20:44:38;;;;;;;;;;;;;;;;;;8427739;28;28238;-76
2022/10/10 20:48:38;;;;;;;;;;;;;;;;;;8405902;28;27539;-76
2022/10/10 20:52:38;;;;;;;;;;;;;;;;;;8404656;28;29123;-76
2022/10/10 20:56:39;;;;;;;;;;;;;;;;;;8419926;27;27268;-75
2022/10/10 21:00:43;;;;;;;;;;;;;;;;;;8414532;27;28772;-77
2022/10/10 21:04:43;;;;;;;;;;;;;;;;;;8413817;27;27311;-77
2022/10/10 21:08:43;;;;;;;;;;;;;;;;;;8411545;28;27979;-76
2022/10/10 21:12:44;;;;;;;;;;;;;;;;;;8433529;27;28289;-76
2022/10/10 21:16:44;;;;;;;;;;;;;;;;;;8413278;27;27312;-76
2022/10/10 21:20:45;;;;;;;;;;;;;;;;;;8407604;28;28677;-76
2022/10/10 21:24:45;;;;;;;;;;;;;;;;;;8405742;28;28367;-76
2022/10/10 21:28:45;;;;;;;;;;;;;;;;;;8413959;28;27463;-75
2022/10/10 21:32:45;;;;;;;;;;;;;;;;;;8417631;28;27811;-76
2022/10/10 21:36:45;;;;;;;;;;;;;;;;;;8414557;28;28088;-77
2022/10/10 21:40:45;;;;;;;;;;;;;;;;;;8415167;27;27363;-76
2022/10/10 21:44:45;;;;;;;;;;;;;;;;;;8415262;28;28325;-75
2022/10/10 21:48:46;;;;;;;;;;;;;;;;;;8413759;28;27291;-75
2022/10/10 21:52:46;;;;;;;;;;;;;;;;;;8414754;28;27482;-77
2022/10/10 21:56:46;;;;;;;;;;;;;;;;;;8417736;28;28665;-75
2022/10/10 22:00:46;;;;;;;;;;;;;;;;;;8404073;28;28286;-78
2022/10/10 22:04:46;;;;;;;;;;;;;;;;;;8415232;28;27740;-76
2022/10/10 22:08:47;;;;;;;;;;;;;;;;;;8416440;27;27159;-77
2022/10/10 22:12:47;;;;;;;;;;;;;;;;;;8417362;27;27230;-77
2022/10/10 22:16:47;;;;;;;;;;;;;;;;;;8415898;27;28430;-76
2022/10/10 22:20:47;;;;;;;;;;;;;;;;;;8412050;28;28378;-76
2022/10/10 22:24:47;;;;;;;;;;;;;;;;;;8413504;28;27080;-75
2022/10/10 22:28:47;;;;;;;;;;;;;;;;;;8418344;28;28393;-76
2022/10/10 22:32:47;;;;;;;;;;;;;;;;;;8417227;28;27077;-76
2022/10/10 22:36:48;;;;;;;;;;;;;;;;;;8415752;28;28478;-77
2022/10/10 22:40:48;;;;;;;;;;;;;;;;;;8429097;27;28403;-75
2022/10/10 22:44:48;;;;;;;;;;;;;;;;;;8419178;27;27785;-77
2022/10/10 22:48:48;;;;;;;;;;;;;;;;;;8418057;28;27983;-76
2022/10/10 22:52:49;;;;;;;;;;;;;;;;;;8413687;28;27329;-78
2022/10/10 22:56:49;;;;;;;;;;;;;;;;;;8418286;27;27528;-75
2022/10/10 23:00:50;;;;;;;;;;;;;;;;;;8421824;28;27638;-75
2022/10/10 23:04:50;;;;;;;;;;;;;;;;;;8416344;28;28049;-76
2022/10/10 23:08:50;;;;;;;;;;;;;;;;;;8412214;27;28207;-75
2022/10/10 23:12:50;;;;;;;;;;;;;;;;;;8413659;28;28582;-76
2022/10/10 23:16:50;;;;;;;;;;;;;;;;;;8406908;27;29259;-75
2022/10/10 23:20:50;;;;;;;;;;;;;;;;;;8414839;27;28079;-77
2022/10/10 23:24:50;;;;;;;;;;;;;;;;;;8408740;28;28150;-77
2022/10/10 23:28:51;;;;;;;;;;;;;;;;;;8406567;28;28401;-76
2022/10/10 23:32:51;;;;;;;;;;;;;;;;;;8412029;28;29220;-76
2022/10/10 23:36:51;;;;;;;;;;;;;;;;;;8409554;28;28682;-77
2022/10/10 23:40:51;;;;;;;;;;;;;;;;;;8405384;28;27540;-77
2022/10/10 23:44:52;;;;;;;;;;;;;;;;;;8431298;27;28224;-74
2022/10/10 23:48:52;;;;;;;;;;;;;;;;;;8413999;28;28369;-76
2022/10/10 23:52:52;;;;;;;;;;;;;;;;;;8413465;28;28711;-76
2022/10/10 23:56:52;;;;;;;;;;;;;;;;;;8414373;28;28328;-75
